createdAt,value
2023-08-08T00:00:40.681Z,-86
2023-08-08T00:03:13.144Z,-86
2023-08-08T00:05:45.557Z,-86
2023-08-08T00:08:18.147Z,-86
2023-08-08T00:10:53.171Z,-85
2023-08-08T00:13:25.538Z,-85
2023-08-08T00:15:57.926Z,-85
2023-08-08T00:18:30.326Z,-87
2023-08-08T00:21:05.680Z,-86
2023-08-08T00:23:38.366Z,-86
2023-08-08T00:26:13.244Z,-86
2023-08-08T00:28:45.665Z,-87
2023-08-08T00:31:19.135Z,-86
2023-08-08T00:33:51.580Z,-86
2023-08-08T00:36:23.859Z,-86
2023-08-08T00:38:56.303Z,-87
2023-08-08T00:41:31.684Z,-84
2023-08-08T00:44:04.067Z,-85
2023-08-08T00:46:37.375Z,-85
2023-08-08T00:49:10.013Z,-85
2023-08-08T00:51:43.471Z,-86
2023-08-08T00:54:18.120Z,-86
2023-08-08T00:56:53.239Z,-86
2023-08-08T00:59:25.982Z,-85
2023-08-08T01:01:58.918Z,-86
2023-08-08T01:04:32.790Z,-86
2023-08-08T01:07:17.354Z,-86
2023-08-08T01:09:58.022Z,-87
2023-08-08T01:12:33.468Z,-85
2023-08-08T01:15:07.581Z,-87
2023-08-08T01:17:41.618Z,-86
2023-08-08T01:20:18.148Z,-84
2023-08-08T01:23:00.890Z,-83
2023-08-08T01:25:36.163Z,-83
2023-08-08T01:28:09.968Z,-83
2023-08-08T01:30:43.721Z,-84
2023-08-08T01:33:16.086Z,-83
2023-08-08T01:35:52.844Z,-82
2023-08-08T01:38:31.768Z,-83
2023-08-08T01:41:09.647Z,-84
2023-08-08T01:43:44.065Z,-83
2023-08-08T01:46:18.103Z,-84
2023-08-08T01:48:50.919Z,-82
2023-08-08T01:51:25.362Z,-82
2023-08-08T01:53:57.840Z,-82
2023-08-08T01:56:32.779Z,-82
2023-08-08T01:59:05.263Z,-82
2023-08-08T02:01:37.652Z,-82
2023-08-08T02:04:10.200Z,-82
2023-08-08T02:06:42.481Z,-82
2023-08-08T02:09:16.162Z,-81
2023-08-08T02:11:51.167Z,-82
2023-08-08T02:14:23.534Z,-82
2023-08-08T02:16:55.872Z,-82
2023-08-08T02:19:28.205Z,-82
2023-08-08T02:22:01.091Z,-82
2023-08-08T02:24:33.643Z,-83
2023-08-08T02:27:09.564Z,-83
2023-08-08T02:29:42.099Z,-82
2023-08-08T02:32:14.571Z,-81
2023-08-08T02:34:46.924Z,-82
2023-08-08T02:37:19.218Z,-82
2023-08-08T02:39:51.584Z,-82
2023-08-08T02:42:26.735Z,-82
2023-08-08T02:44:59.118Z,-82
2023-08-08T02:47:31.417Z,-83
2023-08-08T02:50:03.895Z,-82
2023-08-08T02:52:36.215Z,-82
2023-08-08T02:55:09.487Z,-82
2023-08-08T02:57:44.690Z,-82
2023-08-08T03:00:18.491Z,-82
2023-08-08T03:02:50.902Z,-82
2023-08-08T03:05:23.358Z,-83
2023-08-08T03:07:55.755Z,-82
2023-08-08T03:10:28.052Z,-82
2023-08-08T03:13:03.076Z,-82
2023-08-08T03:15:36.635Z,-82
2023-08-08T03:18:09.653Z,-82
2023-08-08T03:20:42.008Z,-82
2023-08-08T03:23:14.422Z,-82
2023-08-08T03:25:46.825Z,-82
2023-08-08T03:28:21.989Z,-82
2023-08-08T03:30:54.325Z,-83
2023-08-08T03:33:26.603Z,-83
2023-08-08T03:35:58.976Z,-83
2023-08-08T03:38:31.588Z,-81
2023-08-08T03:41:04.231Z,-81
2023-08-08T03:43:39.257Z,-83
2023-08-08T03:46:12.923Z,-84
2023-08-08T03:48:45.466Z,-83
2023-08-08T03:51:17.816Z,-83
2023-08-08T03:53:50.110Z,-83
2023-08-08T03:56:22.447Z,-83
2023-08-08T03:58:57.992Z,-83
2023-08-08T04:01:30.328Z,-84
2023-08-08T04:04:02.700Z,-83
2023-08-08T04:06:35.021Z,-83
2023-08-08T04:09:08.031Z,-83
2023-08-08T04:11:40.439Z,-83
2023-08-08T04:14:15.662Z,-83
2023-08-08T04:16:48.000Z,-83
2023-08-08T04:19:20.447Z,-83
2023-08-08T04:21:52.793Z,-83
2023-08-08T04:24:25.027Z,-83
2023-08-08T04:26:57.378Z,-82
2023-08-08T04:29:32.404Z,-82
2023-08-08T04:32:04.786Z,-83
2023-08-08T04:34:37.109Z,-82
2023-08-08T04:37:10.113Z,-83
2023-08-08T04:39:44.787Z,-82
2023-08-08T04:42:17.145Z,-82
2023-08-08T04:44:52.055Z,-82
2023-08-08T04:47:24.406Z,-82
2023-08-08T04:49:57.037Z,-82
2023-08-08T04:52:29.477Z,-82
2023-08-08T04:55:01.767Z,-83
2023-08-08T04:57:34.016Z,-82
2023-08-08T05:00:10.426Z,-82
2023-08-08T05:02:43.060Z,-82
2023-08-08T05:05:16.908Z,-83
2023-08-08T05:07:50.356Z,-83
2023-08-08T05:10:22.729Z,-83
2023-08-08T05:12:55.015Z,-83
2023-08-08T05:15:29.971Z,-83
2023-08-08T05:18:02.678Z,-83
2023-08-08T05:20:35.048Z,-83
2023-08-08T05:23:07.475Z,-83
2023-08-08T05:25:39.858Z,-83
2023-08-08T05:28:12.844Z,-82
2023-08-08T05:30:47.931Z,-83
2023-08-08T05:33:20.379Z,-83
2023-08-08T05:35:52.659Z,-83
2023-08-08T05:38:25.388Z,-83
2023-08-08T05:40:57.604Z,-80
2023-08-08T05:43:30.921Z,-82
2023-08-08T05:46:05.981Z,-82
2023-08-08T05:48:38.570Z,-83
2023-08-08T05:51:11.515Z,-83
2023-08-08T05:53:43.921Z,-83
2023-08-08T05:56:17.144Z,-83
2023-08-08T05:58:49.679Z,-83
2023-08-08T06:01:24.892Z,-83
2023-08-08T06:03:57.247Z,-84
2023-08-08T06:06:29.655Z,-83
2023-08-08T06:09:09.959Z,-84
2023-08-08T06:11:42.378Z,-84
2023-08-08T06:14:14.925Z,-83
2023-08-08T06:16:50.118Z,-81
2023-08-08T06:19:22.483Z,-82
2023-08-08T06:21:54.855Z,-83
2023-08-08T06:24:27.175Z,-82
2023-08-08T06:26:59.488Z,-82
2023-08-08T06:29:32.087Z,-82
2023-08-08T06:32:07.615Z,-82
2023-08-08T06:34:40.012Z,-83
2023-08-08T06:37:12.735Z,-83
2023-08-08T06:39:46.311Z,-83
2023-08-08T06:42:18.701Z,-84
2023-08-08T06:44:51.156Z,-83
2023-08-08T06:47:26.223Z,-83
2023-08-08T06:49:58.706Z,-82
2023-08-08T06:52:31.222Z,-82
2023-08-08T06:55:03.580Z,-83
2023-08-08T06:57:38.930Z,-83
2023-08-08T07:00:14.803Z,-82
2023-08-08T07:02:49.781Z,-80
2023-08-08T07:05:23.766Z,-82
2023-08-08T07:07:56.756Z,-81
2023-08-08T07:10:29.201Z,-83
2023-08-08T07:13:01.556Z,-81
2023-08-08T07:15:33.945Z,-81
2023-08-08T07:18:10.176Z,-81
2023-08-08T07:20:43.032Z,-81
2023-08-08T07:23:15.655Z,-84
2023-08-08T07:25:49.290Z,-83
2023-08-08T07:28:22.455Z,-82
2023-08-08T07:30:55.115Z,-83
2023-08-08T07:33:30.097Z,-83
2023-08-08T07:36:02.561Z,-83
2023-08-08T07:38:37.998Z,-83
2023-08-08T07:41:12.437Z,-83
2023-08-08T07:43:44.665Z,-81
2023-08-08T07:46:17.630Z,-81
2023-08-08T07:48:52.814Z,-83
2023-08-08T07:51:25.397Z,-83
2023-08-08T07:53:57.663Z,-82
2023-08-08T07:56:30.060Z,-83
2023-08-08T07:59:03.448Z,-83
2023-08-08T08:01:35.816Z,-83
2023-08-08T08:04:10.798Z,-83
2023-08-08T08:06:45.037Z,-82
2023-08-08T08:09:17.618Z,-83
2023-08-08T08:11:49.807Z,-82
2023-08-08T08:14:22.196Z,-83
2023-08-08T08:16:54.887Z,-83
2023-08-08T08:19:37.399Z,-82
2023-08-08T08:22:10.399Z,-83
2023-08-08T08:24:42.665Z,-83
2023-08-08T08:27:15.004Z,-83
2023-08-08T08:29:47.448Z,-83
2023-08-08T08:32:19.957Z,-82
2023-08-08T08:34:54.814Z,-84
2023-08-08T08:37:27.091Z,-84
2023-08-08T08:39:59.546Z,-82
2023-08-08T08:42:34.003Z,-81
2023-08-08T08:45:08.510Z,-87
2023-08-08T08:47:42.823Z,-82
2023-08-08T08:50:20.203Z,-80
2023-08-08T08:52:52.688Z,-80
2023-08-08T08:55:24.981Z,-82
2023-08-08T08:57:58.003Z,-80
2023-08-08T09:00:30.427Z,-78
2023-08-08T09:03:07.032Z,-81
2023-08-08T09:05:46.232Z,-82
2023-08-08T09:08:19.114Z,-80
2023-08-08T09:10:52.100Z,-81
2023-08-08T09:13:27.294Z,-81
2023-08-08T09:16:00.022Z,-80
2023-08-08T09:18:32.713Z,-82
2023-08-08T09:21:07.706Z,-82
2023-08-08T09:23:44.027Z,-82
2023-08-08T09:26:19.432Z,-83
2023-08-08T09:28:53.116Z,-83
2023-08-08T09:31:25.367Z,-80
2023-08-08T09:33:59.577Z,-81
2023-08-08T09:36:34.727Z,-81
2023-08-08T09:39:08.679Z,-80
2023-08-08T09:41:41.072Z,-84
2023-08-08T09:44:13.884Z,-83
2023-08-08T09:46:46.770Z,-84
2023-08-08T09:49:20.444Z,-81
2023-08-08T09:51:55.585Z,-85
2023-08-08T09:54:29.530Z,-85
2023-08-08T09:57:03.667Z,-85
2023-08-08T09:59:37.086Z,-85
2023-08-08T10:02:10.612Z,-84
2023-08-08T10:04:44.399Z,-84
2023-08-08T10:07:19.809Z,-84
2023-08-08T10:09:53.713Z,-86
2023-08-08T10:12:27.778Z,-84
2023-08-08T10:15:02.014Z,-84
2023-08-08T10:17:41.278Z,-87
2023-08-08T10:20:18.874Z,-83
2023-08-08T10:22:59.102Z,-82
2023-08-08T10:25:37.109Z,-84
2023-08-08T10:28:26.285Z,-82
2023-08-08T10:31:02.974Z,-82
2023-08-08T10:33:47.448Z,-83
2023-08-08T10:36:19.773Z,-82
2023-08-08T10:38:56.288Z,-83
2023-08-08T10:41:32.394Z,-79
2023-08-08T10:44:04.659Z,-80
2023-08-08T10:46:39.714Z,-79
2023-08-08T10:49:12.414Z,-80
2023-08-08T10:51:48.231Z,-79
2023-08-08T10:54:30.405Z,-79
2023-08-08T10:57:05.045Z,-80
2023-08-08T10:59:43.083Z,-79
2023-08-08T11:02:15.666Z,-80
2023-08-08T11:04:48.597Z,-79
2023-08-08T11:07:21.301Z,-79
2023-08-08T11:09:57.268Z,-79
2023-08-08T11:12:29.597Z,-79
2023-08-08T11:15:01.885Z,-79
2023-08-08T11:17:34.492Z,-80
2023-08-08T11:20:07.648Z,-79
2023-08-08T11:22:39.979Z,-79
2023-08-08T11:25:15.037Z,-80
2023-08-08T11:27:55.065Z,-78
2023-08-08T11:30:29.317Z,-79
2023-08-08T11:35:38.025Z,-80
2023-08-08T11:38:11.319Z,-80
2023-08-08T11:40:47.047Z,-79
2023-08-08T11:43:19.733Z,-79
2023-08-08T11:45:55.123Z,-79
2023-08-08T11:48:27.601Z,-79
2023-08-08T11:50:59.977Z,-79
2023-08-08T11:53:32.256Z,-78
2023-08-08T11:56:08.785Z,-79
2023-08-08T11:58:41.548Z,-79
2023-08-08T12:01:15.591Z,-79
2023-08-08T12:03:47.908Z,-80
2023-08-08T12:06:20.745Z,-80
2023-08-08T12:08:53.714Z,-80
2023-08-08T12:14:05.597Z,-80
2023-08-08T12:16:37.905Z,-80
2023-08-08T12:19:15.751Z,-79
2023-08-08T12:21:48.081Z,-79
2023-08-08T12:24:20.409Z,-79
2023-08-08T12:26:55.375Z,-79
2023-08-08T12:29:27.892Z,-80
2023-08-08T12:32:00.235Z,-80
2023-08-08T12:34:32.606Z,-80
2023-08-08T12:37:04.913Z,-80
2023-08-08T12:39:37.403Z,-79
2023-08-08T12:42:12.597Z,-79
2023-08-08T12:44:44.928Z,-80
2023-08-08T12:47:17.568Z,-80
2023-08-08T12:49:49.938Z,-80
2023-08-08T12:52:23.653Z,-79
2023-08-08T12:54:56.588Z,-80
2023-08-08T12:57:32.854Z,-80
2023-08-08T13:00:05.369Z,-80
2023-08-08T13:02:38.743Z,-80
2023-08-08T13:05:11.520Z,-80
2023-08-08T13:07:44.082Z,-80
2023-08-08T13:10:20.707Z,-80
2023-08-08T13:12:56.487Z,-80
2023-08-08T13:15:29.054Z,-80
2023-08-08T13:18:01.444Z,-80
2023-08-08T13:20:33.877Z,-79
2023-08-08T13:23:06.089Z,-80
2023-08-08T13:25:38.385Z,-80
2023-08-08T13:28:15.930Z,-80
2023-08-08T13:30:48.351Z,-79
2023-08-08T13:33:22.136Z,-80
2023-08-08T13:35:54.504Z,-79
2023-08-08T13:38:26.951Z,-79
2023-08-08T13:41:01.411Z,-79
2023-08-08T13:43:36.267Z,-79
2023-08-08T13:46:11.150Z,-78
2023-08-08T13:48:44.090Z,-78
2023-08-08T13:51:16.455Z,-78
2023-08-08T13:53:50.301Z,-79
2023-08-08T13:56:23.427Z,-79
2023-08-08T13:58:58.472Z,-79
2023-08-08T14:01:30.814Z,-78
2023-08-08T14:04:03.172Z,-78
2023-08-08T14:06:36.664Z,-79
2023-08-08T14:09:11.083Z,-79
2023-08-08T14:11:43.649Z,-80
2023-08-08T14:14:18.553Z,-79
2023-08-08T14:16:50.864Z,-79
2023-08-08T14:19:24.386Z,-79
2023-08-08T14:21:56.800Z,-79
2023-08-08T14:24:29.169Z,-79
2023-08-08T14:27:02.027Z,-79
2023-08-08T14:29:37.094Z,-80
2023-08-08T14:32:10.428Z,-79
2023-08-08T14:34:43.012Z,-79
2023-08-08T14:37:15.518Z,-80
2023-08-08T14:39:47.997Z,-80
2023-08-08T14:42:20.653Z,-79
2023-08-08T14:44:55.641Z,-80
2023-08-08T14:47:28.191Z,-80
2023-08-08T14:50:00.714Z,-79
2023-08-08T14:52:33.059Z,-80
2023-08-08T14:55:05.778Z,-80
2023-08-08T14:57:38.094Z,-80
2023-08-08T15:00:15.584Z,-80
2023-08-08T15:02:47.906Z,-80
2023-08-08T15:05:20.175Z,-80
2023-08-08T15:07:52.627Z,-80
2023-08-08T15:10:24.933Z,-79
2023-08-08T15:12:57.306Z,-80
2023-08-08T15:15:32.274Z,-80
2023-08-08T15:18:04.855Z,-79
2023-08-08T15:20:37.503Z,-80
2023-08-08T15:23:11.502Z,-79
2023-08-08T15:25:43.835Z,-79
2023-08-08T15:28:16.504Z,-79
2023-08-08T15:30:51.690Z,-79
2023-08-08T15:33:24.165Z,-79
2023-08-08T15:35:57.934Z,-79
2023-08-08T15:38:30.795Z,-80
2023-08-08T15:41:03.306Z,-79
2023-08-08T15:43:35.961Z,-79
2023-08-08T15:46:13.406Z,-80
2023-08-08T15:48:45.865Z,-79
2023-08-08T15:51:18.407Z,-80
2023-08-08T15:53:50.788Z,-79
2023-08-08T15:56:23.612Z,-79
2023-08-08T15:58:56.048Z,-79
2023-08-08T16:01:31.067Z,-79
2023-08-08T16:04:03.449Z,-80
2023-08-08T16:06:35.763Z,-83
2023-08-08T16:09:09.172Z,-82
2023-08-08T16:11:41.543Z,-87
2023-08-08T16:14:13.992Z,-83
2023-08-08T16:16:49.854Z,-83
2023-08-08T16:19:25.165Z,-78
2023-08-08T16:21:57.445Z,-82
2023-08-08T16:24:30.143Z,-83
2023-08-08T16:27:02.930Z,-82
2023-08-08T16:29:35.647Z,-83
2023-08-08T16:32:10.809Z,-83
2023-08-08T16:34:43.155Z,-83
2023-08-08T16:37:15.399Z,-83
2023-08-08T16:39:48.028Z,-83
2023-08-08T16:42:20.421Z,-82
2023-08-08T16:44:52.832Z,-83
2023-08-08T16:47:27.762Z,-83
2023-08-08T16:50:00.243Z,-83
2023-08-08T16:52:32.573Z,-83
2023-08-08T16:55:04.922Z,-82
2023-08-08T16:57:37.851Z,-82
2023-08-08T17:00:12.104Z,-82
2023-08-08T17:02:47.271Z,-83
2023-08-08T17:05:20.131Z,-82
2023-08-08T17:07:52.389Z,-83
2023-08-08T17:10:24.722Z,-83
2023-08-08T17:12:57.079Z,-83
2023-08-08T17:15:29.963Z,-83
2023-08-08T17:18:05.831Z,-83
2023-08-08T17:20:38.341Z,-83
2023-08-08T17:23:10.722Z,-83
2023-08-08T17:25:43.095Z,-82
2023-08-08T17:28:15.515Z,-82
2023-08-08T17:30:48.765Z,-82
2023-08-08T17:33:23.782Z,-82
2023-08-08T17:35:56.159Z,-82
2023-08-08T17:38:28.822Z,-83
2023-08-08T17:41:01.193Z,-82
2023-08-08T17:43:33.449Z,-82
2023-08-08T17:46:05.761Z,-82
2023-08-08T17:48:40.836Z,-81
2023-08-08T17:51:13.342Z,-81
2023-08-08T17:53:45.749Z,-81
2023-08-08T17:56:18.281Z,-81
2023-08-08T17:58:50.867Z,-82
2023-08-08T18:01:23.382Z,-81
2023-08-08T18:03:58.298Z,-81
2023-08-08T18:06:31.797Z,-81
2023-08-08T18:09:05.212Z,-82
2023-08-08T18:11:39.725Z,-81
2023-08-08T18:14:13.919Z,-82
2023-08-08T18:16:46.274Z,-81
2023-08-08T18:19:23.420Z,-82
2023-08-08T18:21:55.735Z,-81
2023-08-08T18:24:28.515Z,-82
2023-08-08T18:27:00.770Z,-82
2023-08-08T18:29:33.281Z,-82
2023-08-08T18:32:05.801Z,-82
2023-08-08T18:34:40.733Z,-82
2023-08-08T18:37:13.177Z,-82
2023-08-08T18:39:45.750Z,-82
2023-08-08T18:42:18.128Z,-82
2023-08-08T18:44:50.409Z,-82
2023-08-08T18:47:22.721Z,-83
2023-08-08T18:49:57.722Z,-82
2023-08-08T18:52:30.055Z,-82
2023-08-08T18:55:02.354Z,-82
2023-08-08T18:57:35.337Z,-82
2023-08-08T19:00:09.055Z,-82
2023-08-08T19:02:41.442Z,-82
2023-08-08T19:05:18.755Z,-82
2023-08-08T19:07:52.529Z,-82
2023-08-08T19:10:25.060Z,-81
2023-08-08T19:12:57.350Z,-81
2023-08-08T19:15:30.212Z,-81
2023-08-08T19:18:02.617Z,-80
2023-08-08T19:20:37.480Z,-81
2023-08-08T19:23:09.775Z,-81
2023-08-08T19:25:42.591Z,-81
2023-08-08T19:28:16.482Z,-81
2023-08-08T19:30:49.016Z,-81
2023-08-08T19:33:21.342Z,-81
2023-08-08T19:35:57.610Z,-80
2023-08-08T19:38:30.174Z,-80
2023-08-08T19:41:05.749Z,-81
2023-08-08T19:43:38.068Z,-81
2023-08-08T19:46:11.819Z,-80
2023-08-08T19:48:46.014Z,-80
2023-08-08T19:51:21.465Z,-81
2023-08-08T19:53:53.827Z,-81
2023-08-08T19:56:26.197Z,-81
2023-08-08T19:58:58.585Z,-81
2023-08-08T20:01:31.062Z,-81
2023-08-08T20:04:05.829Z,-80
2023-08-08T20:06:40.908Z,-81
2023-08-08T20:09:13.343Z,-81
2023-08-08T20:11:45.652Z,-80
2023-08-08T20:14:18.021Z,-79
2023-08-08T20:16:50.344Z,-80
2023-08-08T20:19:22.927Z,-80
2023-08-08T20:21:57.908Z,-80
2023-08-08T20:24:32.421Z,-80
2023-08-08T20:27:04.961Z,-80
2023-08-08T20:29:37.621Z,-80
2023-08-08T20:32:09.942Z,-80
2023-08-08T20:34:42.560Z,-80
2023-08-08T20:37:18.659Z,-80
2023-08-08T20:39:52.113Z,-81
2023-08-08T20:42:24.402Z,-81
2023-08-08T20:44:56.773Z,-81
2023-08-08T20:47:29.115Z,-81
2023-08-08T20:50:01.589Z,-80
2023-08-08T20:52:37.189Z,-80
2023-08-08T20:55:10.760Z,-79
2023-08-08T20:57:43.139Z,-80
2023-08-08T21:00:18.429Z,-80
2023-08-08T21:02:50.928Z,-81
2023-08-08T21:05:23.482Z,-81
2023-08-08T21:08:01.136Z,-81
2023-08-08T21:10:33.635Z,-80
2023-08-08T21:13:06.108Z,-80
2023-08-08T21:15:38.601Z,-80
2023-08-08T21:18:10.992Z,-81
2023-08-08T21:20:43.380Z,-81
2023-08-08T21:23:18.461Z,-80
2023-08-08T21:25:50.809Z,-81
2023-08-08T21:28:24.442Z,-81
2023-08-08T21:30:56.788Z,-81
2023-08-08T21:33:29.190Z,-81
2023-08-08T21:36:01.482Z,-81
2023-08-08T21:38:37.276Z,-81
2023-08-08T21:41:09.602Z,-81
2023-08-08T21:43:42.457Z,-81
2023-08-08T21:46:15.661Z,-81
2023-08-08T21:48:48.247Z,-81
2023-08-08T21:51:20.544Z,-80
2023-08-08T21:53:55.661Z,-80
2023-08-08T21:56:29.441Z,-80
2023-08-08T21:59:02.026Z,-80
2023-08-08T22:01:34.648Z,-80
2023-08-08T22:04:07.629Z,-80
2023-08-08T22:06:40.007Z,-81
2023-08-08T22:09:15.563Z,-80
2023-08-08T22:11:47.923Z,-80
2023-08-08T22:14:20.283Z,-80
2023-08-08T22:16:52.722Z,-80
2023-08-08T22:19:27.145Z,-80
2023-08-08T22:21:59.457Z,-80
2023-08-08T22:24:35.123Z,-80
2023-08-08T22:27:07.743Z,-81
2023-08-08T22:29:40.568Z,-80
2023-08-08T22:32:12.975Z,-80
2023-08-08T22:34:45.245Z,-80
2023-08-08T22:37:17.797Z,-80
2023-08-08T22:39:53.070Z,-81
2023-08-08T22:42:25.364Z,-81
2023-08-08T22:44:57.660Z,-81
2023-08-08T22:47:29.993Z,-80
2023-08-08T22:50:02.923Z,-81
2023-08-08T22:52:35.323Z,-80
2023-08-08T22:55:11.553Z,-80
2023-08-08T22:57:44.208Z,-81
2023-08-08T23:00:19.623Z,-80
2023-08-08T23:02:52.748Z,-80
2023-08-08T23:05:25.696Z,-81
2023-08-08T23:07:58.234Z,-80
2023-08-08T23:10:33.279Z,-81
2023-08-08T23:13:05.706Z,-81
2023-08-08T23:15:40.374Z,-81
2023-08-08T23:18:14.906Z,-81
2023-08-08T23:20:49.124Z,-81
2023-08-08T23:23:21.571Z,-81
2023-08-08T23:25:57.159Z,-80
2023-08-08T23:28:29.731Z,-80
2023-08-08T23:31:02.094Z,-80
2023-08-08T23:33:34.441Z,-81
2023-08-08T23:36:07.623Z,-81
2023-08-08T23:38:42.142Z,-81
2023-08-08T23:41:19.035Z,-81
2023-08-08T23:43:51.860Z,-81
2023-08-08T23:46:24.468Z,-81
2023-08-08T23:48:57.070Z,-81
2023-08-08T23:51:29.358Z,-81
2023-08-08T23:54:01.821Z,-81
2023-08-08T23:56:36.718Z,-81
2023-08-08T23:59:09.305Z,-81
